sensor_id;sensor_type;location;lat;lon;timestamp;P1;durP1;ratioP1;P2;durP2;ratioP2
4486;SDS011;2256;48.740;9.106;2024-01-10T00:00:10;9.77;;;4.80;;
4486;SDS011;2256;48.740;9.106;2024-01-10T00:02:38;15.20;;;5.75;;
4486;SDS011;2256;48.740;9.106;2024-01-10T00:05:05;25.50;;;5.35;;
4486;SDS011;2256;48.740;9.106;2024-01-10T00:07:32;13.00;;;5.63;;
4486;SDS011;2256;48.740;9.106;2024-01-10T00:10:01;14.13;;;4.88;;
4486;SDS011;2256;48.740;9.106;2024-01-10T00:12:30;8.18;;;4.25;;
4486;SDS011;2256;48.740;9.106;2024-01-10T00:15:01;16.90;;;4.82;;
4486;SDS011;2256;48.740;9.106;2024-01-10T00:17:29;13.32;;;5.30;;
4486;SDS011;2256;48.740;9.106;2024-01-10T00:19:57;23.77;;;6.63;;
4486;SDS011;2256;48.740;9.106;2024-01-10T00:22:24;16.88;;;5.13;;
4486;SDS011;2256;48.740;9.106;2024-01-10T00:24:52;11.00;;;5.50;;
4486;SDS011;2256;48.740;9.106;2024-01-10T00:27:19;16.27;;;6.78;;
4486;SDS011;2256;48.740;9.106;2024-01-10T00:29:47;17.40;;;6.75;;
4486;SDS011;2256;48.740;9.106;2024-01-10T00:32:16;11.70;;;5.40;;
4486;SDS011;2256;48.740;9.106;2024-01-10T00:34:43;12.18;;;4.68;;
4486;SDS011;2256;48.740;9.106;2024-01-10T00:37:10;8.68;;;5.30;;
4486;SDS011;2256;48.740;9.106;2024-01-10T00:39:38;31.67;;;6.80;;
4486;SDS011;2256;48.740;9.106;2024-01-10T00:42:06;18.70;;;5.38;;
4486;SDS011;2256;48.740;9.106;2024-01-10T00:44:33;22.38;;;5.38;;
4486;SDS011;2256;48.740;9.106;2024-01-10T00:47:01;18.70;;;5.93;;
4486;SDS011;2256;48.740;9.106;2024-01-10T00:49:29;12.07;;;5.35;;
4486;SDS011;2256;48.740;9.106;2024-01-10T00:51:58;7.82;;;4.15;;
4486;SDS011;2256;48.740;9.106;2024-01-10T00:54:25;17.70;;;6.03;;
4486;SDS011;2256;48.740;9.106;2024-01-10T00:56:51;24.20;;;5.68;;
4486;SDS011;2256;48.740;9.106;2024-01-10T00:59:18;10.27;;;5.40;;
4486;SDS011;2256;48.740;9.106;2024-01-10T01:01:46;12.43;;;4.97;;
4486;SDS011;2256;48.740;9.106;2024-01-10T01:04:14;13.35;;;5.40;;
4486;SDS011;2256;48.740;9.106;2024-01-10T01:06:41;13.15;;;5.20;;
4486;SDS011;2256;48.740;9.106;2024-01-10T01:09:08;14.73;;;5.70;;
4486;SDS011;2256;48.740;9.106;2024-01-10T01:11:35;21.17;;;5.57;;
4486;SDS011;2256;48.740;9.106;2024-01-10T01:14:01;22.38;;;5.32;;
4486;SDS011;2256;48.740;9.106;2024-01-10T01:16:28;11.20;;;4.90;;
4486;SDS011;2256;48.740;9.106;2024-01-10T01:18:55;27.73;;;6.65;;
4486;SDS011;2256;48.740;9.106;2024-01-10T01:21:23;12.48;;;5.63;;
4486;SDS011;2256;48.740;9.106;2024-01-10T01:23:50;23.15;;;6.35;;
4486;SDS011;2256;48.740;9.106;2024-01-10T01:26:17;15.18;;;5.25;;
4486;SDS011;2256;48.740;9.106;2024-01-10T01:28:44;15.25;;;5.35;;
4486;SDS011;2256;48.740;9.106;2024-01-10T01:31:12;9.20;;;5.28;;
4486;SDS011;2256;48.740;9.106;2024-01-10T01:33:39;11.90;;;5.20;;
4486;SDS011;2256;48.740;9.106;2024-01-10T01:36:06;16.40;;;6.20;;
4486;SDS011;2256;48.740;9.106;2024-01-10T01:38:34;12.98;;;5.63;;
4486;SDS011;2256;48.740;9.106;2024-01-10T01:41:02;11.32;;;4.60;;
4486;SDS011;2256;48.740;9.106;2024-01-10T01:43:33;17.48;;;5.43;;
4486;SDS011;2256;48.740;9.106;2024-01-10T01:46:00;12.50;;;5.18;;
4486;SDS011;2256;48.740;9.106;2024-01-10T01:48:28;14.85;;;5.32;;
4486;SDS011;2256;48.740;9.106;2024-01-10T01:50:57;10.55;;;5.50;;
4486;SDS011;2256;48.740;9.106;2024-01-10T01:53:25;15.35;;;4.60;;
4486;SDS011;2256;48.740;9.106;2024-01-10T01:55:55;12.13;;;5.35;;
4486;SDS011;2256;48.740;9.106;2024-01-10T01:58:23;20.10;;;5.30;;
4486;SDS011;2256;48.740;9.106;2024-01-10T02:00:50;14.32;;;5.38;;
4486;SDS011;2256;48.740;9.106;2024-01-10T02:03:18;12.15;;;5.20;;
4486;SDS011;2256;48.740;9.106;2024-01-10T02:05:46;10.73;;;4.53;;
4486;SDS011;2256;48.740;9.106;2024-01-10T02:08:13;14.82;;;5.70;;
4486;SDS011;2256;48.740;9.106;2024-01-10T02:10:40;12.70;;;5.55;;
4486;SDS011;2256;48.740;9.106;2024-01-10T02:13:08;14.40;;;5.68;;
4486;SDS011;2256;48.740;9.106;2024-01-10T02:15:36;15.27;;;4.82;;
4486;SDS011;2256;48.740;9.106;2024-01-10T02:18:04;10.70;;;4.93;;
4486;SDS011;2256;48.740;9.106;2024-01-10T02:20:31;23.83;;;5.95;;
4486;SDS011;2256;48.740;9.106;2024-01-10T02:22:58;15.60;;;5.32;;
4486;SDS011;2256;48.740;9.106;2024-01-10T02:25:28;18.95;;;7.18;;
4486;SDS011;2256;48.740;9.106;2024-01-10T02:27:55;14.10;;;5.38;;
4486;SDS011;2256;48.740;9.106;2024-01-10T02:30:22;16.88;;;6.15;;
4486;SDS011;2256;48.740;9.106;2024-01-10T02:32:49;12.13;;;7.13;;
4486;SDS011;2256;48.740;9.106;2024-01-10T02:35:16;21.20;;;5.50;;
4486;SDS011;2256;48.740;9.106;2024-01-10T02:37:42;13.13;;;5.20;;
4486;SDS011;2256;48.740;9.106;2024-01-10T02:40:11;12.05;;;4.85;;
4486;SDS011;2256;48.740;9.106;2024-01-10T02:42:39;13.27;;;5.75;;
4486;SDS011;2256;48.740;9.106;2024-01-10T02:45:07;9.85;;;5.35;;
4486;SDS011;2256;48.740;9.106;2024-01-10T02:47:35;15.98;;;5.05;;
4486;SDS011;2256;48.740;9.106;2024-01-10T02:50:02;12.23;;;4.30;;
4486;SDS011;2256;48.740;9.106;2024-01-10T02:52:29;16.08;;;5.43;;
4486;SDS011;2256;48.740;9.106;2024-01-10T02:54:56;15.15;;;5.82;;
4486;SDS011;2256;48.740;9.106;2024-01-10T02:57:23;13.90;;;6.50;;
4486;SDS011;2256;48.740;9.106;2024-01-10T02:59:52;14.05;;;5.30;;
4486;SDS011;2256;48.740;9.106;2024-01-10T03:02:19;23.75;;;5.55;;
4486;SDS011;2256;48.740;9.106;2024-01-10T03:04:51;7.97;;;4.60;;
4486;SDS011;2256;48.740;9.106;2024-01-10T03:07:18;14.38;;;4.85;;
4486;SDS011;2256;48.740;9.106;2024-01-10T03:09:45;11.57;;;5.63;;
4486;SDS011;2256;48.740;9.106;2024-01-10T03:12:11;14.85;;;5.95;;
4486;SDS011;2256;48.740;9.106;2024-01-10T03:14:38;19.35;;;6.90;;
4486;SDS011;2256;48.740;9.106;2024-01-10T03:17:13;10.95;;;5.32;;
4486;SDS011;2256;48.740;9.106;2024-01-10T03:19:41;9.43;;;5.07;;
4486;SDS011;2256;48.740;9.106;2024-01-10T03:22:09;16.95;;;6.30;;
4486;SDS011;2256;48.740;9.106;2024-01-10T03:24:36;14.88;;;5.65;;
4486;SDS011;2256;48.740;9.106;2024-01-10T03:27:03;14.18;;;5.95;;
4486;SDS011;2256;48.740;9.106;2024-01-10T03:29:30;31.45;;;6.25;;
4486;SDS011;2256;48.740;9.106;2024-01-10T03:31:57;11.18;;;4.88;;
4486;SDS011;2256;48.740;9.106;2024-01-10T03:34:26;15.45;;;5.82;;
4486;SDS011;2256;48.740;9.106;2024-01-10T03:36:53;15.90;;;5.20;;
4486;SDS011;2256;48.740;9.106;2024-01-10T03:39:22;15.02;;;6.28;;
4486;SDS011;2256;48.740;9.106;2024-01-10T03:41:49;16.13;;;5.43;;
4486;SDS011;2256;48.740;9.106;2024-01-10T03:44:15;13.85;;;4.97;;
4486;SDS011;2256;48.740;9.106;2024-01-10T03:46:43;11.15;;;5.80;;
4486;SDS011;2256;48.740;9.106;2024-01-10T03:49:10;9.15;;;4.72;;
4486;SDS011;2256;48.740;9.106;2024-01-10T03:51:40;9.02;;;4.80;;
4486;SDS011;2256;48.740;9.106;2024-01-10T03:54:07;13.27;;;5.13;;
4486;SDS011;2256;48.740;9.106;2024-01-10T03:56:34;17.27;;;5.65;;
4486;SDS011;2256;48.740;9.106;2024-01-10T03:59:03;17.33;;;5.80;;
4486;SDS011;2256;48.740;9.106;2024-01-10T04:01:31;15.35;;;5.25;;
4486;SDS011;2256;48.740;9.106;2024-01-10T04:03:59;13.15;;;5.40;;
4486;SDS011;2256;48.740;9.106;2024-01-10T04:06:26;14.55;;;5.70;;
4486;SDS011;2256;48.740;9.106;2024-01-10T04:08:55;8.88;;;5.30;;
4486;SDS011;2256;48.740;9.106;2024-01-10T04:11:23;31.67;;;5.30;;
4486;SDS011;2256;48.740;9.106;2024-01-10T04:13:49;17.73;;;5.68;;
4486;SDS011;2256;48.740;9.106;2024-01-10T04:16:16;11.27;;;4.85;;
4486;SDS011;2256;48.740;9.106;2024-01-10T04:18:43;16.55;;;5.13;;
4486;SDS011;2256;48.740;9.106;2024-01-10T04:21:10;9.38;;;4.15;;
4486;SDS011;2256;48.740;9.106;2024-01-10T04:23:37;17.42;;;5.95;;
4486;SDS011;2256;48.740;9.106;2024-01-10T04:26:06;12.55;;;5.20;;
4486;SDS011;2256;48.740;9.106;2024-01-10T04:28:33;17.88;;;6.30;;
4486;SDS011;2256;48.740;9.106;2024-01-10T04:30:59;14.18;;;5.53;;
4486;SDS011;2256;48.740;9.106;2024-01-10T04:33:26;9.88;;;5.05;;
4486;SDS011;2256;48.740;9.106;2024-01-10T04:35:53;14.10;;;4.68;;
4486;SDS011;2256;48.740;9.106;2024-01-10T04:38:21;13.95;;;6.50;;
4486;SDS011;2256;48.740;9.106;2024-01-10T04:40:51;9.23;;;5.70;;
4486;SDS011;2256;48.740;9.106;2024-01-10T04:43:19;14.85;;;5.18;;
4486;SDS011;2256;48.740;9.106;2024-01-10T04:45:46;19.02;;;6.65;;
4486;SDS011;2256;48.740;9.106;2024-01-10T04:48:13;12.65;;;6.60;;
4486;SDS011;2256;48.740;9.106;2024-01-10T04:50:40;15.00;;;5.75;;
4486;SDS011;2256;48.740;9.106;2024-01-10T04:53:06;18.45;;;6.50;;
4486;SDS011;2256;48.740;9.106;2024-01-10T04:55:33;20.50;;;7.03;;
4486;SDS011;2256;48.740;9.106;2024-01-10T04:58:00;26.27;;;6.57;;
4486;SDS011;2256;48.740;9.106;2024-01-10T05:00:28;19.23;;;5.95;;
4486;SDS011;2256;48.740;9.106;2024-01-10T05:02:55;19.20;;;6.45;;
4486;SDS011;2256;48.740;9.106;2024-01-10T05:05:22;17.92;;;6.07;;
4486;SDS011;2256;48.740;9.106;2024-01-10T05:07:50;18.42;;;6.07;;
4486;SDS011;2256;48.740;9.106;2024-01-10T05:10:17;15.00;;;5.32;;
4486;SDS011;2256;48.740;9.106;2024-01-10T05:12:44;11.65;;;5.97;;
4486;SDS011;2256;48.740;9.106;2024-01-10T05:15:11;15.32;;;7.43;;
4486;SDS011;2256;48.740;9.106;2024-01-10T05:17:39;12.73;;;6.57;;
4486;SDS011;2256;48.740;9.106;2024-01-10T05:20:06;24.02;;;6.25;;
4486;SDS011;2256;48.740;9.106;2024-01-10T05:22:34;18.05;;;6.10;;
4486;SDS011;2256;48.740;9.106;2024-01-10T05:25:01;18.92;;;6.40;;
4486;SDS011;2256;48.740;9.106;2024-01-10T05:27:29;16.67;;;6.75;;
4486;SDS011;2256;48.740;9.106;2024-01-10T05:29:56;21.90;;;6.97;;
4486;SDS011;2256;48.740;9.106;2024-01-10T05:32:24;22.67;;;7.03;;
4486;SDS011;2256;48.740;9.106;2024-01-10T05:34:53;11.48;;;5.95;;
4486;SDS011;2256;48.740;9.106;2024-01-10T05:37:19;25.13;;;6.97;;
4486;SDS011;2256;48.740;9.106;2024-01-10T05:39:48;23.50;;;6.53;;
4486;SDS011;2256;48.740;9.106;2024-01-10T05:42:14;19.70;;;6.63;;
4486;SDS011;2256;48.740;9.106;2024-01-10T05:44:41;19.70;;;6.78;;
4486;SDS011;2256;48.740;9.106;2024-01-10T05:47:08;17.85;;;7.45;;
4486;SDS011;2256;48.740;9.106;2024-01-10T05:49:35;27.00;;;8.38;;
4486;SDS011;2256;48.740;9.106;2024-01-10T05:52:03;20.45;;;6.85;;
4486;SDS011;2256;48.740;9.106;2024-01-10T05:54:30;10.98;;;5.50;;
4486;SDS011;2256;48.740;9.106;2024-01-10T05:56:57;17.77;;;6.53;;
4486;SDS011;2256;48.740;9.106;2024-01-10T05:59:26;22.00;;;8.73;;
4486;SDS011;2256;48.740;9.106;2024-01-10T06:01:52;17.55;;;7.05;;
4486;SDS011;2256;48.740;9.106;2024-01-10T06:04:19;31.40;;;8.93;;
4486;SDS011;2256;48.740;9.106;2024-01-10T06:06:46;27.42;;;6.85;;
4486;SDS011;2256;48.740;9.106;2024-01-10T06:09:14;16.42;;;7.72;;
4486;SDS011;2256;48.740;9.106;2024-01-10T06:11:47;14.77;;;7.15;;
4486;SDS011;2256;48.740;9.106;2024-01-10T06:14:14;21.70;;;8.45;;
4486;SDS011;2256;48.740;9.106;2024-01-10T06:16:41;16.75;;;7.43;;
4486;SDS011;2256;48.740;9.106;2024-01-10T06:19:09;22.05;;;6.82;;
4486;SDS011;2256;48.740;9.106;2024-01-10T06:21:36;19.60;;;7.22;;
4486;SDS011;2256;48.740;9.106;2024-01-10T06:24:03;13.07;;;6.22;;
4486;SDS011;2256;48.740;9.106;2024-01-10T06:26:31;14.00;;;6.65;;
4486;SDS011;2256;48.740;9.106;2024-01-10T06:28:59;14.02;;;6.35;;
4486;SDS011;2256;48.740;9.106;2024-01-10T06:31:27;13.80;;;6.03;;
4486;SDS011;2256;48.740;9.106;2024-01-10T06:33:54;32.22;;;6.95;;
4486;SDS011;2256;48.740;9.106;2024-01-10T06:36:21;12.35;;;5.70;;
4486;SDS011;2256;48.740;9.106;2024-01-10T06:38:47;20.85;;;6.80;;
4486;SDS011;2256;48.740;9.106;2024-01-10T06:41:14;14.32;;;6.40;;
4486;SDS011;2256;48.740;9.106;2024-01-10T06:43:42;21.85;;;7.95;;
4486;SDS011;2256;48.740;9.106;2024-01-10T06:46:10;39.08;;;8.25;;
4486;SDS011;2256;48.740;9.106;2024-01-10T06:48:37;21.02;;;7.90;;
4486;SDS011;2256;48.740;9.106;2024-01-10T06:51:09;18.77;;;6.65;;
4486;SDS011;2256;48.740;9.106;2024-01-10T06:53:39;17.50;;;7.63;;
4486;SDS011;2256;48.740;9.106;2024-01-10T06:56:06;38.83;;;8.73;;
4486;SDS011;2256;48.740;9.106;2024-01-10T06:58:36;15.75;;;5.95;;
4486;SDS011;2256;48.740;9.106;2024-01-10T07:01:12;21.05;;;7.93;;
4486;SDS011;2256;48.740;9.106;2024-01-10T07:03:39;23.70;;;7.47;;
4486;SDS011;2256;48.740;9.106;2024-01-10T07:06:06;21.42;;;7.53;;
4486;SDS011;2256;48.740;9.106;2024-01-10T07:08:33;28.15;;;7.40;;
4486;SDS011;2256;48.740;9.106;2024-01-10T07:11:01;16.30;;;7.10;;
4486;SDS011;2256;48.740;9.106;2024-01-10T07:13:27;22.33;;;9.05;;
4486;SDS011;2256;48.740;9.106;2024-01-10T07:15:54;16.13;;;6.20;;
4486;SDS011;2256;48.740;9.106;2024-01-10T07:18:22;19.60;;;6.60;;
4486;SDS011;2256;48.740;9.106;2024-01-10T07:20:49;17.17;;;7.55;;
4486;SDS011;2256;48.740;9.106;2024-01-10T07:23:16;16.10;;;6.78;;
4486;SDS011;2256;48.740;9.106;2024-01-10T07:25:43;24.40;;;7.20;;
4486;SDS011;2256;48.740;9.106;2024-01-10T07:28:11;23.70;;;8.05;;
4486;SDS011;2256;48.740;9.106;2024-01-10T07:30:38;18.63;;;6.65;;
4486;SDS011;2256;48.740;9.106;2024-01-10T07:33:06;15.98;;;7.45;;
4486;SDS011;2256;48.740;9.106;2024-01-10T07:35:36;19.75;;;7.13;;
4486;SDS011;2256;48.740;9.106;2024-01-10T07:38:05;21.88;;;8.20;;
4486;SDS011;2256;48.740;9.106;2024-01-10T07:40:33;20.20;;;7.88;;
4486;SDS011;2256;48.740;9.106;2024-01-10T07:43:00;16.10;;;7.55;;
4486;SDS011;2256;48.740;9.106;2024-01-10T07:45:27;16.52;;;6.95;;
4486;SDS011;2256;48.740;9.106;2024-01-10T07:47:54;17.35;;;6.55;;
4486;SDS011;2256;48.740;9.106;2024-01-10T07:50:22;23.50;;;8.00;;
4486;SDS011;2256;48.740;9.106;2024-01-10T07:52:53;20.95;;;8.05;;
4486;SDS011;2256;48.740;9.106;2024-01-10T07:55:20;19.17;;;6.70;;
4486;SDS011;2256;48.740;9.106;2024-01-10T07:57:47;20.10;;;7.50;;
4486;SDS011;2256;48.740;9.106;2024-01-10T08:00:14;20.05;;;7.82;;
4486;SDS011;2256;48.740;9.106;2024-01-10T08:02:43;18.05;;;7.70;;
4486;SDS011;2256;48.740;9.106;2024-01-10T08:05:09;19.83;;;7.80;;
4486;SDS011;2256;48.740;9.106;2024-01-10T08:07:38;19.45;;;7.25;;
4486;SDS011;2256;48.740;9.106;2024-01-10T08:10:06;17.60;;;8.55;;
4486;SDS011;2256;48.740;9.106;2024-01-10T08:12:34;24.70;;;9.18;;
4486;SDS011;2256;48.740;9.106;2024-01-10T08:15:01;25.90;;;9.45;;
4486;SDS011;2256;48.740;9.106;2024-01-10T08:17:28;17.02;;;8.98;;
4486;SDS011;2256;48.740;9.106;2024-01-10T08:19:55;20.83;;;9.20;;
4486;SDS011;2256;48.740;9.106;2024-01-10T08:22:22;14.82;;;7.55;;
4486;SDS011;2256;48.740;9.106;2024-01-10T08:24:50;24.83;;;9.23;;
4486;SDS011;2256;48.740;9.106;2024-01-10T08:27:18;21.08;;;7.82;;
4486;SDS011;2256;48.740;9.106;2024-01-10T08:29:45;34.75;;;7.15;;
4486;SDS011;2256;48.740;9.106;2024-01-10T08:32:12;21.33;;;8.75;;
4486;SDS011;2256;48.740;9.106;2024-01-10T08:34:40;35.60;;;8.85;;
4486;SDS011;2256;48.740;9.106;2024-01-10T08:37:06;21.98;;;7.80;;
4486;SDS011;2256;48.740;9.106;2024-01-10T08:39:34;30.30;;;10.48;;
4486;SDS011;2256;48.740;9.106;2024-01-10T08:42:01;30.08;;;8.98;;
4486;SDS011;2256;48.740;9.106;2024-01-10T08:44:29;26.58;;;8.65;;
4486;SDS011;2256;48.740;9.106;2024-01-10T08:46:56;27.75;;;9.75;;
4486;SDS011;2256;48.740;9.106;2024-01-10T08:49:23;20.00;;;8.88;;
4486;SDS011;2256;48.740;9.106;2024-01-10T08:51:52;21.70;;;9.18;;
4486;SDS011;2256;48.740;9.106;2024-01-10T08:54:19;20.25;;;8.43;;
4486;SDS011;2256;48.740;9.106;2024-01-10T08:56:48;27.08;;;9.85;;
4486;SDS011;2256;48.740;9.106;2024-01-10T08:59:15;38.65;;;9.70;;
4486;SDS011;2256;48.740;9.106;2024-01-10T09:01:44;23.92;;;10.25;;
4486;SDS011;2256;48.740;9.106;2024-01-10T09:04:12;16.85;;;8.15;;
4486;SDS011;2256;48.740;9.106;2024-01-10T09:06:42;31.20;;;9.50;;
4486;SDS011;2256;48.740;9.106;2024-01-10T09:09:10;35.95;;;10.43;;
4486;SDS011;2256;48.740;9.106;2024-01-10T09:11:42;26.73;;;10.07;;
4486;SDS011;2256;48.740;9.106;2024-01-10T09:14:09;30.42;;;11.40;;
4486;SDS011;2256;48.740;9.106;2024-01-10T09:16:36;32.67;;;12.27;;
4486;SDS011;2256;48.740;9.106;2024-01-10T09:19:05;28.65;;;10.73;;
4486;SDS011;2256;48.740;9.106;2024-01-10T09:21:32;28.27;;;11.38;;
4486;SDS011;2256;48.740;9.106;2024-01-10T09:24:00;21.15;;;9.25;;
4486;SDS011;2256;48.740;9.106;2024-01-10T09:26:30;39.35;;;11.95;;
4486;SDS011;2256;48.740;9.106;2024-01-10T09:28:58;32.00;;;11.85;;
4486;SDS011;2256;48.740;9.106;2024-01-10T09:31:27;25.10;;;10.50;;
4486;SDS011;2256;48.740;9.106;2024-01-10T09:33:55;27.70;;;11.30;;
4486;SDS011;2256;48.740;9.106;2024-01-10T09:36:23;28.88;;;11.70;;
4486;SDS011;2256;48.740;9.106;2024-01-10T09:38:52;32.22;;;11.57;;
4486;SDS011;2256;48.740;9.106;2024-01-10T09:41:21;43.00;;;13.20;;
4486;SDS011;2256;48.740;9.106;2024-01-10T09:43:49;25.42;;;10.57;;
4486;SDS011;2256;48.740;9.106;2024-01-10T09:46:16;23.13;;;11.20;;
4486;SDS011;2256;48.740;9.106;2024-01-10T09:48:44;31.02;;;12.05;;
4486;SDS011;2256;48.740;9.106;2024-01-10T09:51:11;31.90;;;11.10;;
4486;SDS011;2256;48.740;9.106;2024-01-10T09:53:42;24.88;;;10.55;;
4486;SDS011;2256;48.740;9.106;2024-01-10T09:56:14;28.02;;;11.88;;
4486;SDS011;2256;48.740;9.106;2024-01-10T09:58:42;27.45;;;10.35;;
4486;SDS011;2256;48.740;9.106;2024-01-10T10:01:11;27.70;;;10.43;;
4486;SDS011;2256;48.740;9.106;2024-01-10T10:03:38;28.20;;;9.77;;
4486;SDS011;2256;48.740;9.106;2024-01-10T10:06:11;31.15;;;10.90;;
4486;SDS011;2256;48.740;9.106;2024-01-10T10:08:38;28.27;;;10.32;;
4486;SDS011;2256;48.740;9.106;2024-01-10T10:11:11;22.42;;;8.85;;
4486;SDS011;2256;48.740;9.106;2024-01-10T10:13:39;28.70;;;10.00;;
4486;SDS011;2256;48.740;9.106;2024-01-10T10:16:07;29.95;;;9.32;;
4486;SDS011;2256;48.740;9.106;2024-01-10T10:18:37;30.48;;;9.93;;
4486;SDS011;2256;48.740;9.106;2024-01-10T10:21:07;23.50;;;9.05;;
4486;SDS011;2256;48.740;9.106;2024-01-10T10:23:36;23.13;;;10.50;;
4486;SDS011;2256;48.740;9.106;2024-01-10T10:26:11;27.27;;;11.50;;
4486;SDS011;2256;48.740;9.106;2024-01-10T10:28:44;22.90;;;8.40;;
4486;SDS011;2256;48.740;9.106;2024-01-10T10:31:12;26.13;;;9.88;;
4486;SDS011;2256;48.740;9.106;2024-01-10T10:33:42;33.10;;;11.95;;
4486;SDS011;2256;48.740;9.106;2024-01-10T10:36:09;36.97;;;11.30;;
4486;SDS011;2256;48.740;9.106;2024-01-10T10:38:36;31.73;;;11.30;;
4486;SDS011;2256;48.740;9.106;2024-01-10T10:41:04;25.88;;;11.13;;
4486;SDS011;2256;48.740;9.106;2024-01-10T10:43:37;41.25;;;12.18;;
4486;SDS011;2256;48.740;9.106;2024-01-10T10:46:05;31.45;;;11.32;;
4486;SDS011;2256;48.740;9.106;2024-01-10T10:48:33;35.28;;;10.35;;
4486;SDS011;2256;48.740;9.106;2024-01-10T10:51:03;31.50;;;11.48;;
4486;SDS011;2256;48.740;9.106;2024-01-10T10:53:35;29.42;;;10.25;;
4486;SDS011;2256;48.740;9.106;2024-01-10T10:56:05;36.85;;;11.98;;
4486;SDS011;2256;48.740;9.106;2024-01-10T10:58:34;25.55;;;10.40;;
4486;SDS011;2256;48.740;9.106;2024-01-10T11:01:06;33.17;;;11.25;;
4486;SDS011;2256;48.740;9.106;2024-01-10T11:03:35;31.33;;;10.90;;
4486;SDS011;2256;48.740;9.106;2024-01-10T11:29:45;30.63;;;11.52;;
4486;SDS011;2256;48.740;9.106;2024-01-10T11:57:45;27.40;;;11.35;;
4486;SDS011;2256;48.740;9.106;2024-01-10T12:00:35;36.97;;;12.10;;
4486;SDS011;2256;48.740;9.106;2024-01-10T12:03:03;35.17;;;12.27;;
4486;SDS011;2256;48.740;9.106;2024-01-10T12:05:30;43.05;;;12.85;;
4486;SDS011;2256;48.740;9.106;2024-01-10T12:07:59;25.83;;;10.95;;
4486;SDS011;2256;48.740;9.106;2024-01-10T12:10:26;38.88;;;12.68;;
4486;SDS011;2256;48.740;9.106;2024-01-10T12:12:56;28.38;;;11.25;;
4486;SDS011;2256;48.740;9.106;2024-01-10T12:15:23;30.65;;;11.35;;
4486;SDS011;2256;48.740;9.106;2024-01-10T12:17:50;40.30;;;12.70;;
4486;SDS011;2256;48.740;9.106;2024-01-10T12:20:17;31.17;;;11.75;;
4486;SDS011;2256;48.740;9.106;2024-01-10T12:22:44;33.67;;;12.65;;
4486;SDS011;2256;48.740;9.106;2024-01-10T12:25:11;29.45;;;10.43;;
4486;SDS011;2256;48.740;9.106;2024-01-10T12:27:38;38.22;;;12.82;;
4486;SDS011;2256;48.740;9.106;2024-01-10T12:30:07;37.22;;;12.27;;
4486;SDS011;2256;48.740;9.106;2024-01-10T12:32:34;30.83;;;11.95;;
4486;SDS011;2256;48.740;9.106;2024-01-10T12:35:01;42.75;;;13.95;;
4486;SDS011;2256;48.740;9.106;2024-01-10T12:37:28;27.83;;;11.82;;
4486;SDS011;2256;48.740;9.106;2024-01-10T12:39:55;37.20;;;14.75;;
4486;SDS011;2256;48.740;9.106;2024-01-10T12:42:22;34.25;;;12.52;;
4486;SDS011;2256;48.740;9.106;2024-01-10T12:44:49;34.50;;;12.75;;
4486;SDS011;2256;48.740;9.106;2024-01-10T12:47:20;36.33;;;13.85;;
4486;SDS011;2256;48.740;9.106;2024-01-10T12:49:48;56.90;;;15.13;;
4486;SDS011;2256;48.740;9.106;2024-01-10T12:52:14;36.83;;;13.35;;
4486;SDS011;2256;48.740;9.106;2024-01-10T12:54:41;31.63;;;11.88;;
4486;SDS011;2256;48.740;9.106;2024-01-10T12:57:08;33.13;;;12.52;;
4486;SDS011;2256;48.740;9.106;2024-01-10T12:59:35;30.50;;;11.02;;
4486;SDS011;2256;48.740;9.106;2024-01-10T13:02:02;40.70;;;14.20;;
4486;SDS011;2256;48.740;9.106;2024-01-10T13:04:30;33.10;;;13.68;;
4486;SDS011;2256;48.740;9.106;2024-01-10T13:06:58;32.85;;;13.82;;
4486;SDS011;2256;48.740;9.106;2024-01-10T13:09:25;42.17;;;13.57;;
4486;SDS011;2256;48.740;9.106;2024-01-10T13:11:52;41.17;;;12.13;;
4486;SDS011;2256;48.740;9.106;2024-01-10T13:14:19;41.20;;;12.77;;
4486;SDS011;2256;48.740;9.106;2024-01-10T13:16:46;33.58;;;13.52;;
4486;SDS011;2256;48.740;9.106;2024-01-10T13:19:13;27.10;;;11.25;;
4486;SDS011;2256;48.740;9.106;2024-01-10T13:21:41;36.80;;;12.48;;
4486;SDS011;2256;48.740;9.106;2024-01-10T13:24:09;29.67;;;12.80;;
4486;SDS011;2256;48.740;9.106;2024-01-10T13:26:36;48.78;;;12.93;;
4486;SDS011;2256;48.740;9.106;2024-01-10T13:29:03;40.60;;;14.57;;
4486;SDS011;2256;48.740;9.106;2024-01-10T13:31:30;45.55;;;16.75;;
4486;SDS011;2256;48.740;9.106;2024-01-10T13:33:57;46.90;;;15.80;;
4486;SDS011;2256;48.740;9.106;2024-01-10T13:36:24;32.45;;;13.63;;
4486;SDS011;2256;48.740;9.106;2024-01-10T13:38:52;31.38;;;13.35;;
4486;SDS011;2256;48.740;9.106;2024-01-10T13:41:19;42.65;;;13.70;;
4486;SDS011;2256;48.740;9.106;2024-01-10T13:43:46;38.60;;;14.23;;
4486;SDS011;2256;48.740;9.106;2024-01-10T13:46:12;45.40;;;16.15;;
4486;SDS011;2256;48.740;9.106;2024-01-10T13:48:39;29.65;;;11.38;;
4486;SDS011;2256;48.740;9.106;2024-01-10T13:51:06;45.25;;;11.90;;
4486;SDS011;2256;48.740;9.106;2024-01-10T13:53:35;36.15;;;12.95;;
4486;SDS011;2256;48.740;9.106;2024-01-10T13:56:03;30.33;;;13.05;;
4486;SDS011;2256;48.740;9.106;2024-01-10T13:58:30;43.75;;;13.95;;
4486;SDS011;2256;48.740;9.106;2024-01-10T14:00:57;35.25;;;13.27;;
4486;SDS011;2256;48.740;9.106;2024-01-10T14:03:25;36.25;;;13.05;;
4486;SDS011;2256;48.740;9.106;2024-01-10T14:05:52;38.15;;;14.23;;
4486;SDS011;2256;48.740;9.106;2024-01-10T14:08:18;33.42;;;13.32;;
4486;SDS011;2256;48.740;9.106;2024-01-10T14:10:45;30.38;;;12.80;;
4486;SDS011;2256;48.740;9.106;2024-01-10T14:13:14;38.08;;;13.90;;
4486;SDS011;2256;48.740;9.106;2024-01-10T14:15:41;33.58;;;12.73;;
4486;SDS011;2256;48.740;9.106;2024-01-10T14:18:08;38.08;;;14.13;;
4486;SDS011;2256;48.740;9.106;2024-01-10T14:20:35;43.55;;;14.75;;
4486;SDS011;2256;48.740;9.106;2024-01-10T14:23:02;49.28;;;16.70;;
4486;SDS011;2256;48.740;9.106;2024-01-10T14:25:29;37.63;;;13.10;;
4486;SDS011;2256;48.740;9.106;2024-01-10T14:27:56;38.60;;;13.43;;
4486;SDS011;2256;48.740;9.106;2024-01-10T14:30:25;41.58;;;13.10;;
4486;SDS011;2256;48.740;9.106;2024-01-10T14:32:52;32.88;;;12.73;;
4486;SDS011;2256;48.740;9.106;2024-01-10T14:35:19;24.85;;;10.55;;
4486;SDS011;2256;48.740;9.106;2024-01-10T14:37:45;32.28;;;12.68;;
4486;SDS011;2256;48.740;9.106;2024-01-10T14:40:12;27.90;;;12.30;;
4486;SDS011;2256;48.740;9.106;2024-01-10T14:42:39;34.78;;;12.45;;
4486;SDS011;2256;48.740;9.106;2024-01-10T14:45:06;37.50;;;14.40;;
4486;SDS011;2256;48.740;9.106;2024-01-10T14:47:35;30.13;;;11.68;;
4486;SDS011;2256;48.740;9.106;2024-01-10T14:50:02;39.78;;;12.30;;
4486;SDS011;2256;48.740;9.106;2024-01-10T14:52:30;32.53;;;12.85;;
4486;SDS011;2256;48.740;9.106;2024-01-10T14:54:57;28.83;;;11.73;;
4486;SDS011;2256;48.740;9.106;2024-01-10T14:57:23;28.98;;;12.38;;
4486;SDS011;2256;48.740;9.106;2024-01-10T14:59:50;32.70;;;13.00;;
4486;SDS011;2256;48.740;9.106;2024-01-10T15:02:17;43.88;;;13.40;;
4486;SDS011;2256;48.740;9.106;2024-01-10T15:04:45;36.63;;;13.07;;
4486;SDS011;2256;48.740;9.106;2024-01-10T15:07:12;29.08;;;11.95;;
4486;SDS011;2256;48.740;9.106;2024-01-10T15:09:39;36.72;;;14.32;;
4486;SDS011;2256;48.740;9.106;2024-01-10T15:12:08;30.45;;;12.18;;
4486;SDS011;2256;48.740;9.106;2024-01-10T15:14:35;36.33;;;11.10;;
4486;SDS011;2256;48.740;9.106;2024-01-10T15:17:03;34.63;;;12.65;;
4486;SDS011;2256;48.740;9.106;2024-01-10T15:19:33;30.33;;;11.90;;
4486;SDS011;2256;48.740;9.106;2024-01-10T15:22:01;39.17;;;14.27;;
4486;SDS011;2256;48.740;9.106;2024-01-10T15:24:28;30.50;;;13.23;;
4486;SDS011;2256;48.740;9.106;2024-01-10T15:26:55;37.40;;;12.93;;
4486;SDS011;2256;48.740;9.106;2024-01-10T15:29:25;32.30;;;13.30;;
4486;SDS011;2256;48.740;9.106;2024-01-10T15:31:53;38.92;;;13.18;;
4486;SDS011;2256;48.740;9.106;2024-01-10T15:34:20;39.97;;;13.00;;
4486;SDS011;2256;48.740;9.106;2024-01-10T15:36:46;45.00;;;14.32;;
4486;SDS011;2256;48.740;9.106;2024-01-10T15:39:14;40.10;;;13.13;;
4486;SDS011;2256;48.740;9.106;2024-01-10T15:41:42;39.08;;;12.88;;
4486;SDS011;2256;48.740;9.106;2024-01-10T15:44:08;42.80;;;14.05;;
4486;SDS011;2256;48.740;9.106;2024-01-10T15:46:36;32.42;;;13.55;;
4486;SDS011;2256;48.740;9.106;2024-01-10T15:49:03;36.10;;;13.15;;